Terminal Aerodrome Forecast
Issued by NWS

Current Version | Previous Version | Text Only | Print | Product List | Glossary On
Versions: 1 2 3 4 5 6 7 8 9 10 11 12 13 14 15 16 17 18 19
000
FTUS46 KSEW 212300
TAFBLI
TAF
KBLI 212320Z 2200/2224 21007KT P6SM SKC
     FM220300 15004KT P6SM FEW100
     FM221100 18008KT P6SM OVC010
     FM221900 19005KT P6SM SCT025 OVC035=

USA.gov is the U.S. government's official web portal to all federal, state and local government web resources and services.